Freeman, Washington
Current Conditions -  °F | °C
As of 3:53 AM on Thursday 29 Jan 2015 (Local Time) from KSFF Reporting Station
Overcast Overcast  
Wind Chill:   Ceiling: 300
Heat Index:   Visibility: 7mi
Dew Point: -1°   Wind: 3mph
Humidity: 92%   Direction: 70°ENE
Pressure: 30.46"   Gusts: NA
Location:  47.52°N, 117.2°W
Report Text: KSFF 291153Z AUTO 07003KT 7SM OVC003 01/M01 A3046 RMK AO2 SLP327 I6001 T00061006 10017 21006 58001
Loading
Personal Weather Stations






























Interactive Weather Map New forecast layout! Learn more

10-Day Weather Forecast

Advertisements
Track Severe Weather on mobile